Time;durP1;ratioP1;P1;durP2;ratioP2;P2;SDS_P1;SDS_P2;PMS_P1;PMS_P2;Temp;Humidity;BMP_temperature;BMP_pressure;BME280_temperature;BME280_humidity;BME280_pressure;Samples;Min_cycle;Max_cycle;Signal;HPM_P1;HPM_P2
2023/03/28 06:13:19;;;;;;;5.93;3.53;;;;;;;;;;5159699;27;20288;-77
2023/03/28 06:18:37;;;;;;;8.03;4.17;;;;;;;;;;5091235;28;20281;-75
2023/03/28 06:24:39;;;;;;;7.50;3.70;;;;;;;;;;5132266;27;20733;-75
2023/03/28 06:29:01;;;;;;;7.90;3.97;;;-0.60;99.90;;;;;;5132419;27;20275;-76
2023/03/28 06:33:19;;;;;;;8.57;4.43;;;;;;;;;;5131670;27;20279;-75
2023/03/28 06:37:05;;;;;;;4.47;3.57;;;-0.30;99.90;;;;;;5132383;27;20275;-75
2023/03/28 06:41:39;;;;;;;7.70;3.90;;;;;;;;;;5173522;27;20621;-75
2023/03/28 06:51:08;;;;;;;4.47;2.80;;;;;;;;;;5132348;27;20263;-76
2023/03/28 06:54:39;;;;;;;3.20;2.53;;;0.10;99.90;;;;;;5132391;27;20759;-76
2023/03/28 06:58:16;;;;;;;4.47;3.20;;;0.30;99.90;;;;;;5132431;27;20277;-76
2023/03/28 07:00:42;;;;;;;4.97;3.93;;;0.40;99.90;;;;;;5113210;28;20404;-76
2023/03/28 07:05:20;;;;;;;5.03;3.27;;;0.40;99.90;;;;;;5132329;27;20263;-76
2023/03/28 07:07:46;;;;;;;9.23;4.10;;;;;;;;;;5131824;28;20435;-76
2023/03/28 07:10:11;;;;;;;5.40;3.57;;;0.90;99.90;;;;;;5113172;28;20175;-76
2023/03/28 07:12:37;;;;;;;4.53;3.20;;;0.90;99.90;;;;;;5131225;28;20498;-76
2023/03/28 07:15:03;;;;;;;3.63;3.20;;;1.00;99.90;;;;;;5131413;27;20194;-76
2023/03/28 07:17:29;;;;;;;7.13;3.40;;;0.90;99.90;;;;;;5131456;27;20170;-77
2023/03/28 07:19:56;;;;;;;5.33;3.63;;;0.90;99.90;;;;;;5130017;28;20443;-76
2023/03/28 07:22:21;;;;;;;4.63;3.67;;;0.80;99.90;;;;;;5131144;27;20552;-76
2023/03/28 07:24:47;;;;;;;7.60;3.97;;;0.80;99.90;;;;;;5131078;27;20451;-77
2023/03/28 07:27:13;;;;;;;6.57;3.40;;;1.40;99.90;;;;;;5129920;28;20182;-77
2023/03/28 07:29:38;;;;;;;4.37;3.63;;;2.90;99.90;;;;;;5130004;28;20171;-77
2023/03/28 07:32:05;;;;;;;5.27;3.17;;;3.80;99.90;;;;;;5131133;27;20510;-77
2023/03/28 07:34:30;;;;;;;6.57;3.70;;;3.90;99.90;;;;;;5129806;28;20568;-77
2023/03/28 07:36:56;;;;;;;5.73;3.57;;;4.50;99.90;;;;;;5131372;27;20412;-77
2023/03/28 07:39:22;;;;;;;6.07;3.60;;;4.00;99.90;;;;;;5131233;27;20224;-77
2023/03/28 07:41:47;;;;;;;4.73;3.13;;;4.90;99.90;;;;;;5129376;28;20178;-77
2023/03/28 07:44:13;;;;;;;3.80;3.17;;;4.90;99.90;;;;;;5129570;28;20298;-77
2023/03/28 07:46:38;;;;;;;4.70;3.10;;;5.00;99.90;;;;;;5129693;28;20199;-77
2023/03/28 07:49:05;;;;;;;3.73;2.87;;;5.10;99.90;;;;;;5130825;27;20171;-76
2023/03/28 07:51:31;;;;;;;7.30;2.77;;;5.00;99.90;;;;;;5131118;27;20605;-77
2023/03/28 07:53:56;;;;;;;4.60;3.20;;;4.90;99.90;;;;;;5130571;28;20978;-77
2023/03/28 07:56:22;;;;;;;4.03;3.63;;;4.90;99.90;;;;;;5130783;27;20167;-77
2023/03/28 07:58:48;;;;;;;3.43;2.50;;;5.10;99.90;;;;;;5130856;27;20250;-77
2023/03/28 08:01:14;;;;;;;5.90;3.13;;;5.50;99.90;;;;;;5130663;27;20198;-77
2023/03/28 08:03:40;;;;;;;5.13;2.50;;;5.20;99.90;;;;;;5128974;28;20215;-76
2023/03/28 08:06:08;;;;;;;6.40;2.60;;;5.60;99.90;;;;;;5130461;27;20607;-77
2023/03/28 08:08:34;;;;;;;5.07;2.50;;;5.90;99.90;;;;;;5129462;28;20573;-76
2023/03/28 08:11:00;;;;;;;4.60;2.73;;;5.40;99.90;;;;;;5129087;28;20183;-77
2023/03/28 08:13:26;;;;;;;2.90;2.53;;;5.20;99.90;;;;;;5130092;27;20281;-76
2023/03/28 08:15:54;;;;;;;5.13;2.50;;;4.90;99.90;;;;;;5121303;27;20219;-77
2023/03/28 08:18:21;;;;;;;5.00;2.30;;;3.70;99.90;;;;;;5115399;28;20185;-76
2023/03/28 08:20:47;;;;;;;6.57;2.57;;;2.80;99.90;;;;;;5116555;28;20311;-76
2023/03/28 08:23:13;;;;;;;4.90;2.23;;;3.10;99.90;;;;;;5114914;28;20199;-76
2023/03/28 08:25:39;;;;;;;5.50;2.10;;;3.20;99.90;;;;;;5116328;28;20163;-76
2023/03/28 08:28:05;;;;;;;6.90;2.67;;;3.50;99.90;;;;;;5115102;28;20233;-76
2023/03/28 08:30:31;;;;;;;3.17;2.40;;;3.80;99.90;;;;;;5114956;28;20179;-76
2023/03/28 08:32:57;;;;;;;3.67;1.90;;;3.30;99.90;;;;;;5116095;28;20644;-76
2023/03/28 08:35:22;;;;;;;4.87;2.23;;;2.70;99.90;;;;;;5116154;28;20634;-76
2023/03/28 08:37:50;;;;;;;3.47;1.80;;;2.50;99.90;;;;;;5116098;28;20619;-76
2023/03/28 08:40:19;;;;;;;4.73;2.80;;;2.20;99.90;;;;;;5114968;28;20229;-76
2023/03/28 08:42:59;;;;;;;5.33;2.73;;;4.20;99.90;;;;;;5115879;28;20234;-76
2023/03/28 08:45:37;;;;;;;3.30;2.10;;;5.70;99.90;;;;;;5116045;28;20258;-76
2023/03/28 08:48:21;;;;;;;4.10;2.27;;;5.90;99.90;;;;;;5114683;28;20541;-76
2023/03/28 08:51:05;;;;;;;5.13;2.50;;;6.60;99.90;;;;;;5115879;28;20163;-76
2023/03/28 08:53:36;;;;;;;3.87;2.23;;;7.40;99.90;;;;;;5114362;28;20201;-76
2023/03/28 08:56:03;;;;;;;4.27;1.90;;;7.00;99.90;;;;;;5114618;28;20175;-76
2023/03/28 08:58:38;;;;;;;5.70;1.73;;;6.20;99.90;;;;;;5115820;28;20194;-76
2023/03/28 09:01:04;;;;;;;3.67;2.27;;;5.40;99.90;;;;;;5115794;28;20177;-76
2023/03/28 09:03:31;;;;;;;5.87;1.70;;;4.80;99.90;;;;;;5115310;28;20204;-77
2023/03/28 09:06:03;;;;;;;3.33;1.90;;;4.10;99.90;;;;;;5115805;28;20609;-76
2023/03/28 09:08:47;;;;;;;3.23;1.83;;;3.60;99.90;;;;;;5115601;28;20157;-76
2023/03/28 09:11:55;;;;;;;4.23;2.07;;;3.20;99.90;;;;;;5114145;28;20206;-76
2023/03/28 09:14:42;;;;;;;3.40;1.90;;;3.10;99.90;;;;;;5083194;28;20550;-77
2023/03/28 09:17:34;;;;;;;5.73;2.20;;;3.50;99.90;;;;;;5115579;28;20175;-76
2023/03/28 09:20:18;;;;;;;6.30;2.33;;;3.80;99.90;;;;;;5115593;28;20157;-76
2023/03/28 09:23:05;;;;;;;3.30;2.00;;;4.90;99.90;;;;;;5115130;28;20189;-77
2023/03/28 09:25:43;;;;;;;3.63;2.20;;;6.00;99.90;;;;;;5114031;28;20774;-76
2023/03/28 09:28:29;;;;;;;4.07;1.70;;;5.90;99.90;;;;;;5113092;28;20615;-76
2023/03/28 09:30:58;;;;;;;3.47;2.03;;;5.50;99.90;;;;;;5115678;28;20191;-77
2023/03/28 09:33:29;;;;;;;3.53;1.93;;;4.60;99.90;;;;;;5115016;28;20752;-77
2023/03/28 09:35:56;;;;;;;5.93;2.50;;;4.60;99.90;;;;;;5113895;28;20169;-76
2023/03/28 09:38:28;;;;;;;4.23;2.60;;;4.40;99.90;;;;;;5114092;28;20181;-77
2023/03/28 09:40:59;;;;;;;3.93;2.13;;;4.20;99.90;;;;;;5115235;28;20181;-76
2023/03/28 09:43:39;;;;;;;3.47;2.47;;;3.70;99.90;;;;;;5113551;28;20611;-77
2023/03/28 09:46:08;;;;;;;3.80;2.43;;;3.30;99.90;;;;;;5113725;28;20627;-76
2023/03/28 09:48:38;;;;;;;2.47;2.27;;;3.10;99.90;;;;;;5115160;28;20621;-76
2023/03/28 09:51:10;;;;;;;4.07;2.20;;;3.20;99.90;;;;;;5115112;28;20172;-76
2023/03/28 09:53:36;;;;;;;3.07;2.37;;;3.50;99.90;;;;;;5114707;28;20195;-76
2023/03/28 09:56:08;;;;;;;3.77;2.00;;;4.50;99.90;;;;;;5114847;28;20230;-76
2023/03/28 09:58:47;;;;;;;2.27;1.90;;;4.40;99.90;;;;;;5114830;28;20170;-76
2023/03/28 10:01:42;;;;;;;2.80;2.00;;;4.90;99.90;;;;;;5113527;28;20617;-76
2023/03/28 10:04:14;;;;;;;2.93;2.13;;;5.50;99.90;;;;;;5114303;28;20240;-76
2023/03/28 10:06:42;;;;;;;2.67;2.00;;;5.10;99.90;;;;;;5114701;28;20160;-76
2023/03/28 10:09:18;;;;;;;4.13;2.30;;;4.60;99.90;;;;;;5114644;28;20251;-76
2023/03/28 10:11:58;;;;;;;4.67;3.13;;;4.20;99.90;;;;;;5114777;28;20572;-76
2023/03/28 10:14:35;;;;;;;4.23;2.60;;;3.80;99.90;;;;;;5114725;28;20672;-76
2023/03/28 10:17:16;;;;;;;4.17;2.60;;;3.70;99.90;;;;;;5114762;28;20156;-75
2023/03/28 10:19:45;;;;;;;3.40;2.60;;;3.60;99.90;;;;;;5114564;28;20195;-76
2023/03/28 10:22:36;;;;;;;2.57;2.23;;;4.50;99.90;;;;;;5112814;28;20212;-76
2023/03/28 10:25:12;;;;;;;4.80;2.17;;;5.10;99.90;;;;;;5114240;28;20208;-76
2023/03/28 10:27:39;;;;;;;3.90;2.00;;;4.50;99.90;;;;;;5113179;28;20571;-76
2023/03/28 10:30:22;;;;;;;2.13;1.63;;;5.00;99.90;;;;;;5114253;28;20169;-76
2023/03/28 10:33:10;;;;;;;2.93;1.93;;;5.90;99.90;;;;;;5114041;28;20183;-76
2023/03/28 10:35:40;;;;;;;3.87;2.00;;;7.30;99.90;;;;;;5114078;28;20176;-77
2023/03/28 10:38:14;;;;;;;2.87;2.07;;;7.90;97.50;;;;;;5114004;28;20172;-77
2023/03/28 10:40:40;;;;;;;5.43;1.77;;;8.20;99.90;;;;;;5114494;28;20161;-77
2023/03/28 10:43:13;;;;;;;2.23;1.63;;;7.40;96.90;;;;;;5112521;28;20282;-77
2023/03/28 10:45:42;;;;;;;3.60;1.80;;;6.40;96.90;;;;;;5112755;28;20246;-76
2023/03/28 10:48:15;;;;;;;2.17;1.73;;;5.40;95.80;;;;;;5114037;28;20645;-76
2023/03/28 10:50:49;;;;;;;3.23;1.80;;;4.80;99.80;;;;;;5113967;28;20163;-76
2023/03/28 10:53:26;;;;;;;3.13;1.73;;;4.60;99.60;;;;;;5113769;28;20187;-76
2023/03/28 10:56:29;;;;;;;3.70;2.10;;;5.10;99.70;;;;;;5114197;27;20638;-77
2023/03/28 10:59:00;;;;;;;3.60;1.93;;;6.50;99.30;;;;;;5113880;28;20199;-76
2023/03/28 11:01:37;;;;;;;2.33;1.53;;;7.40;96.70;;;;;;5112214;28;20182;-76
2023/03/28 11:04:23;;;;;;;6.10;1.83;;;7.70;97.90;;;;;;5113549;28;20205;-77
2023/03/28 11:07:07;;;;;;;2.07;1.73;;;8.40;95.40;;;;;;5112588;28;20169;-77
2023/03/28 11:09:44;;;;;;;3.80;1.70;;;7.60;92.60;;;;;;5112573;28;20174;-77
2023/03/28 11:12:29;;;;;;;3.03;1.83;;;6.80;91.00;;;;;;5113798;28;20194;-76
2023/03/28 11:15:12;;;;;;;3.20;2.13;;;6.10;92.70;;;;;;5113652;28;20166;-76
2023/03/28 11:18:04;;;;;;;4.27;2.23;;;6.50;94.90;;;;;;5113739;28;20164;-77
2023/03/28 11:20:54;;;;;;;4.13;2.40;;;7.70;96.50;;;;;;5113916;28;20160;-77
2023/03/28 11:23:54;;;;;;;1.97;1.77;;;8.80;99.30;;;;;;5113258;28;20211;-77
2023/03/28 11:26:29;;;;;;;5.03;2.10;;;9.10;91.50;;;;;;5060974;28;20184;-77
2023/03/28 11:29:03;;;;;;;5.23;2.57;;;9.20;90.20;;;;;;5113510;28;20151;-77
2023/03/28 11:32:09;;;;;;;3.43;2.67;;;8.60;91.40;;;;;;5114028;28;20213;-77
2023/03/28 11:34:44;;;;;;;5.50;2.90;;;7.90;95.00;;;;;;5093035;28;20524;-77
2023/03/28 11:37:22;;;;;;;3.20;2.13;;;7.40;91.60;;;;;;5113720;28;20565;-76
2023/03/28 11:40:05;;;;;;;3.93;2.03;;;7.00;92.10;;;;;;5113429;28;20147;-76
2023/03/28 11:42:40;;;;;;;3.43;1.93;;;6.70;91.60;;;;;;5113137;28;20226;-76
2023/03/28 11:45:26;;;;;;;2.17;1.93;;;7.50;91.90;;;;;;5113377;28;20187;-77
2023/03/28 11:48:04;;;;;;;2.80;2.13;;;7.40;90.10;;;;;;5113423;28;20155;-76
2023/03/28 11:50:48;;;;;;;5.03;2.20;;;7.60;91.60;;;;;;5114470;28;20159;-77
2023/03/28 11:53:28;;;;;;;3.57;2.00;;;8.70;90.70;;;;;;5115650;28;20227;-76
2023/03/28 11:56:11;;;;;;;3.00;1.83;;;9.60;88.40;;;;;;5117327;28;20156;-76
2023/03/28 11:58:42;;;;;;;2.43;1.57;;;10.30;84.90;;;;;;5117401;28;20239;-77
2023/03/28 12:01:17;;;;;;;4.27;1.67;;;10.90;80.30;;;;;;5117174;27;20221;-77
2023/03/28 12:03:48;;;;;;;3.07;1.70;;;10.40;75.80;;;;;;5116518;28;20215;-76
2023/03/28 12:06:41;;;;;;;2.13;1.60;;;9.00;76.70;;;;;;5116857;28;20172;-77
2023/03/28 12:09:07;;;;;;;2.50;1.60;;;8.40;74.40;;;;;;5115626;28;20170;-76
2023/03/28 12:11:38;;;;;;;2.30;2.10;;;8.20;78.40;;;;;;5115652;28;20519;-76
2023/03/28 12:14:10;;;;;;;2.03;1.70;;;8.70;76.80;;;;;;5115451;28;20248;-77
2023/03/28 12:16:46;;;;;;;3.90;2.23;;;9.20;78.90;;;;;;5116685;28;20195;-76
2023/03/28 12:19:17;;;;;;;3.50;2.07;;;8.20;79.40;;;;;;5116623;28;20239;-76
2023/03/28 12:21:59;;;;;;;1.80;1.50;;;8.10;80.70;;;;;;5116715;28;20152;-77
2023/03/28 12:24:55;;;;;;;2.63;2.03;;;8.90;84.10;;;;;;5115256;28;20198;-76
2023/03/28 12:27:26;;;;;;;2.30;1.90;;;10.30;81.70;;;;;;5116735;28;20250;-76
2023/03/28 12:30:29;;;;;;;2.97;2.00;;;10.60;71.90;;;;;;5116431;28;20178;-76
2023/03/28 12:33:13;;;;;;;5.27;2.33;;;10.90;76.40;;;;;;5116416;28;20244;-76
2023/03/28 12:35:51;;;;;;;3.43;2.10;;;11.40;70.80;;;;;;5116824;27;20171;-77
2023/03/28 12:38:44;;;;;;;2.07;1.60;;;11.20;67.40;;;;;;5116267;28;20240;-77
2023/03/28 12:41:16;;;;;;;3.20;1.67;;;10.90;65.40;;;;;;5116277;27;20614;-76
2023/03/28 12:43:45;;;;;;;2.07;1.77;;;11.10;64.00;;;;;;5115986;28;20210;-76
2023/03/28 12:46:15;;;;;;;2.07;1.60;;;11.00;64.20;;;;;;5116363;28;20702;-76
2023/03/28 12:48:59;;;;;;;2.70;1.83;;;11.40;68.20;;;;;;5116769;28;20719;-76
2023/03/28 12:51:36;;;;;;;2.20;1.70;;;11.20;66.80;;;;;;5116033;28;20157;-77
2023/03/28 12:54:15;;;;;;;1.83;1.70;;;11.40;66.00;;;;;;5114476;28;20740;-76
2023/03/28 12:56:45;;;;;;;3.33;2.07;;;11.50;65.70;;;;;;5116244;28;20571;-76
2023/03/28 12:59:40;;;;;;;2.43;1.60;;;10.80;65.50;;;;;;5114759;28;20187;-77
2023/03/28 13:02:31;;;;;;;2.93;1.90;;;11.10;64.30;;;;;;5111443;28;20234;-76
2023/03/28 13:05:25;;;;;;;2.73;2.20;;;11.10;67.40;;;;;;5114400;28;20211;-77
2023/03/28 13:07:57;;;;;;;3.47;1.93;;;11.20;63.60;;;;;;5116316;28;20496;-77
2023/03/28 13:10:36;;;;;;;3.37;1.93;;;11.40;65.10;;;;;;5114386;28;20179;-76
2023/03/28 13:13:12;;;;;;;3.33;1.97;;;10.00;61.90;;;;;;5115379;28;20239;-77
2023/03/28 13:16:11;;;;;;;2.67;2.27;;;9.40;66.30;;;;;;5115641;28;20155;-76
2023/03/28 13:18:46;;;;;;;4.73;2.27;;;9.40;65.60;;;;;;5115808;27;20160;-76
2023/03/28 13:21:32;;;;;;;1.93;1.70;;;10.50;67.80;;;;;;5114268;28;20155;-76
2023/03/28 13:23:57;;;;;;;2.63;2.13;;;11.30;64.30;;;;;;5113763;28;20207;-77
2023/03/28 13:26:23;;;;;;;4.00;1.70;;;11.30;64.30;;;;;;5115368;28;20164;-76
2023/03/28 13:28:52;;;;;;;2.83;2.13;;;10.90;62.50;;;;;;5115488;28;20164;-77
2023/03/28 13:31:23;;;;;;;1.70;1.60;;;10.70;62.60;;;;;;5115586;28;20163;-78
2023/03/28 13:33:57;;;;;;;2.77;1.77;;;11.00;66.10;;;;;;5113937;28;20203;-77
2023/03/28 13:36:53;;;;;;;2.50;2.07;;;11.20;67.20;;;;;;5115863;28;20171;-77
2023/03/28 13:39:23;;;;;;;4.23;2.00;;;11.90;65.20;;;;;;5112403;28;20171;-76
2023/03/28 13:41:50;;;;;;;3.17;1.80;;;11.90;65.00;;;;;;5113336;28;20304;-76
2023/03/28 13:44:30;;;;;;;2.67;1.93;;;12.20;64.00;;;;;;5113770;28;20191;-77
2023/03/28 13:46:56;;;;;;;2.70;1.87;;;12.70;61.90;;;;;;5114370;28;20195;-77
2023/03/28 13:49:35;;;;;;;3.40;1.80;;;13.30;64.50;;;;;;5113637;28;20176;-77
2023/03/28 13:52:03;;;;;;;3.33;1.80;;;13.50;62.80;;;;;;5113369;28;20168;-76
2023/03/28 13:54:29;;;;;;;2.93;1.70;;;12.80;61.10;;;;;;5114800;28;20167;-77
2023/03/28 13:57:02;;;;;;;1.83;1.73;;;13.10;63.30;;;;;;5114829;28;20176;-77
2023/03/28 13:59:35;;;;;;;2.67;2.00;;;13.30;62.50;;;;;;5114749;28;20155;-77
2023/03/28 14:02:13;;;;;;;2.53;1.83;;;13.40;62.50;;;;;;5114411;28;20229;-77
2023/03/28 14:04:39;;;;;;;3.27;2.13;;;14.00;65.40;;;;;;5114559;28;20284;-77
2023/03/28 14:07:05;;;;;;;3.60;2.20;;;13.70;60.30;;;;;;5114919;28;20199;-77
2023/03/28 14:09:33;;;;;;;2.53;1.80;;;13.40;64.80;;;;;;5114753;28;20578;-77
2023/03/28 14:12:06;;;;;;;2.00;1.80;;;13.30;60.20;;;;;;5112903;28;20169;-77
2023/03/28 14:14:36;;;;;;;2.30;1.97;;;13.00;59.70;;;;;;5114160;28;20233;-77
2023/03/28 14:17:06;;;;;;;3.17;2.07;;;12.80;59.90;;;;;;5114338;28;20637;-77
2023/03/28 14:19:38;;;;;;;2.90;1.80;;;12.70;58.40;;;;;;5114304;28;20673;-77
2023/03/28 14:22:16;;;;;;;1.87;1.73;;;11.90;61.40;;;;;;5113955;28;20531;-77
2023/03/28 14:24:44;;;;;;;3.93;2.00;;;11.60;58.90;;;;;;5114148;28;20203;-77
2023/03/28 14:27:14;;;;;;;1.90;1.80;;;11.70;59.50;;;;;;5114213;28;20179;-77
2023/03/28 14:29:54;;;;;;;2.87;1.73;;;11.70;61.50;;;;;;5114212;28;20180;-77
2023/03/28 14:32:39;;;;;;;4.50;1.90;;;11.70;59.00;;;;;;5114124;28;20196;-77
2023/03/28 14:35:20;;;;;;;2.47;1.53;;;11.80;61.50;;;;;;5112887;28;20182;-77
2023/03/28 14:37:51;;;;;;;2.20;1.90;;;11.70;61.70;;;;;;5113920;27;20706;-77
2023/03/28 14:40:26;;;;;;;2.37;1.80;;;11.10;59.20;;;;;;5114020;28;20172;-77
2023/03/28 14:43:00;;;;;;;22.27;8.53;;;11.00;59.10;;;;;;5113957;28;20197;-77
2023/03/28 14:45:27;;;;;;;5.50;2.20;;;10.70;59.40;;;;;;5113864;28;20192;-77
2023/03/28 14:47:55;;;;;;;2.47;1.77;;;10.40;61.10;;;;;;5113893;28;20197;-77
2023/03/28 14:50:23;;;;;;;2.57;1.57;;;10.20;60.00;;;;;;5114130;28;20165;-77
2023/03/28 14:52:49;;;;;;;2.80;1.63;;;10.00;60.30;;;;;;5113605;28;20192;-77
2023/03/28 14:55:20;;;;;;;2.77;1.60;;;9.60;62.90;;;;;;5113844;28;20252;-77
2023/03/28 14:57:49;;;;;;;2.67;2.00;;;9.70;67.40;;;;;;5114028;28;20556;-77
2023/03/28 15:00:20;;;;;;;2.73;1.60;;;10.00;66.30;;;;;;5113710;28;20176;-76
2023/03/28 15:02:47;;;;;;;11.20;2.30;;;10.00;64.40;;;;;;5113735;28;20195;-76
2023/03/28 15:05:19;;;;;;;2.83;1.73;;;10.20;66.90;;;;;;5112444;28;20215;-76
2023/03/28 15:07:54;;;;;;;1.93;1.73;;;9.80;63.00;;;;;;5113640;28;20170;-76
2023/03/28 15:10:21;;;;;;;5.47;1.60;;;9.70;66.50;;;;;;5113099;28;20167;-76
2023/03/28 15:12:59;;;;;;;4.03;1.93;;;9.80;68.60;;;;;;5113252;28;20184;-77
2023/03/28 15:15:31;;;;;;;3.80;2.00;;;9.80;63.40;;;;;;5114626;28;20167;-77
2023/03/28 15:18:00;;;;;;;3.20;1.83;;;9.70;66.10;;;;;;5112303;28;20179;-77
2023/03/28 15:20:31;;;;;;;2.67;2.00;;;10.00;65.40;;;;;;5113937;28;20172;-77
2023/03/28 15:23:03;;;;;;;2.87;1.50;;;9.70;65.10;;;;;;5113459;28;20600;-76
2023/03/28 15:25:30;;;;;;;1.60;1.50;;;10.00;65.90;;;;;;5114960;28;20194;-76
2023/03/28 15:27:59;;;;;;;3.20;1.97;;;10.50;63.90;;;;;;5117655;28;20585;-76
2023/03/28 15:30:27;;;;;;;2.40;1.63;;;10.50;65.20;;;;;;5117609;28;20170;-76
2023/03/28 15:33:02;;;;;;;3.73;1.97;;;10.00;65.70;;;;;;5117449;28;20186;-76
2023/03/28 15:35:38;;;;;;;1.60;1.47;;;9.40;64.90;;;;;;5118229;28;20152;-76
2023/03/28 15:38:14;;;;;;;1.53;1.40;;;8.60;64.90;;;;;;5116178;28;20232;-76
2023/03/28 15:40:46;;;;;;;2.40;1.90;;;8.00;65.50;;;;;;5117672;28;20154;-76
2023/03/28 15:43:33;;;;;;;4.20;3.00;;;7.60;66.30;;;;;;5117196;28;20278;-76
2023/03/28 15:46:01;;;;;;;3.80;3.30;;;7.60;68.20;;;;;;5117895;28;20155;-76
2023/03/28 15:48:30;;;;;;;3.30;2.57;;;7.60;67.10;;;;;;5116142;28;20217;-76
2023/03/28 15:50:56;;;;;;;3.27;2.00;;;7.60;67.60;;;;;;5117220;28;20168;-76
2023/03/28 15:53:27;;;;;;;3.00;1.90;;;7.40;67.90;;;;;;5116953;28;20614;-76
2023/03/28 15:55:54;;;;;;;3.63;1.93;;;7.40;68.70;;;;;;5117402;28;20156;-76
2023/03/28 15:58:22;;;;;;;2.83;2.03;;;7.50;68.60;;;;;;5116118;28;20552;-76
2023/03/28 16:00:48;;;;;;;2.60;1.70;;;7.60;69.50;;;;;;5117002;28;20164;-76
2023/03/28 16:03:19;;;;;;;3.13;1.77;;;7.70;67.70;;;;;;5115260;28;20213;-76
2023/03/28 16:05:56;;;;;;;2.30;1.80;;;7.60;69.30;;;;;;5115013;28;20190;-78
2023/03/28 16:08:33;;;;;;;2.30;1.90;;;7.70;67.40;;;;;;5117395;28;20216;-80
2023/03/28 16:11:00;;;;;;;3.00;2.03;;;7.50;68.70;;;;;;5120770;28;20167;-75
2023/03/28 16:13:27;;;;;;;2.67;1.60;;;7.40;66.30;;;;;;5119459;28;20193;-78
2023/03/28 16:15:53;;;;;;;4.20;2.03;;;7.20;67.60;;;;;;5116079;28;20177;-77
2023/03/28 16:18:19;;;;;;;2.80;1.93;;;7.20;68.50;;;;;;5115691;28;20188;-77
2023/03/28 16:20:45;;;;;;;5.27;3.73;;;7.30;68.50;;;;;;5115884;28;20517;-76
2023/03/28 16:23:12;;;;;;;4.87;3.50;;;7.30;68.30;;;;;;5116485;28;20208;-75
2023/03/28 16:25:39;;;;;;;3.23;1.80;;;7.30;70.00;;;;;;5116918;28;20173;-76
2023/03/28 16:28:05;;;;;;;3.70;2.20;;;7.00;67.60;;;;;;5115477;28;20227;-76
2023/03/28 16:30:39;;;;;;;5.13;2.43;;;7.00;69.20;;;;;;5116856;28;20180;-76
2023/03/28 16:33:05;;;;;;;4.83;2.73;;;7.00;70.60;;;;;;5115330;28;20199;-76
2023/03/28 16:35:30;;;;;;;3.03;1.93;;;6.90;69.60;;;;;;5115229;28;20176;-77
2023/03/28 16:37:56;;;;;;;2.10;1.80;;;6.90;69.10;;;;;;5115995;28;20709;-77
2023/03/28 16:40:22;;;;;;;1.63;1.53;;;6.80;68.50;;;;;;5116326;28;20201;-77
2023/03/28 16:42:48;;;;;;;5.00;1.80;;;6.80;69.40;;;;;;5116947;28;20191;-77
2023/03/28 16:45:13;;;;;;;5.53;3.03;;;6.60;69.00;;;;;;5116378;28;20555;-76
2023/03/28 16:47:40;;;;;;;2.60;2.20;;;6.50;69.90;;;;;;5114856;28;20172;-76
2023/03/28 16:50:07;;;;;;;2.43;1.63;;;6.40;69.50;;;;;;5114849;28;20172;-76
2023/03/28 16:52:37;;;;;;;2.07;1.53;;;6.40;68.30;;;;;;5115889;28;20665;-76
2023/03/28 16:55:08;;;;;;;2.07;1.87;;;6.30;69.10;;;;;;5114893;28;20631;-77
2023/03/28 16:57:35;;;;;;;2.53;1.50;;;6.20;68.90;;;;;;5115933;28;20183;-76
2023/03/28 17:00:02;;;;;;;2.03;1.60;;;6.20;69.00;;;;;;5115960;28;20646;-76
2023/03/28 17:02:28;;;;;;;2.37;2.07;;;6.20;69.50;;;;;;5115717;28;20434;-76
2023/03/28 17:04:53;;;;;;;2.70;1.90;;;6.20;70.10;;;;;;5115747;28;20215;-76
